Time;durP1;ratioP1;P1;durP2;ratioP2;P2;SDS_P1;SDS_P2;PMS_P1;PMS_P2;Temp;Humidity;BMP_temperature;BMP_pressure;BME280_temperature;BME280_humidity;BME280_pressure;Samples;Min_cycle;Max_cycle;Signal;HPM_P1;HPM_P2
2023/03/31 00:01:44;;;;;;;;;;;;;;;11.60;nan;96789.94;4922578;29;19970;-86
2023/03/31 00:04:30;;;;;;;;;;;;;;;11.62;nan;96780.75;4911687;29;19950;-86
2023/03/31 00:07:15;;;;;;;;;;;;;;;11.50;nan;96775.69;4927152;29;19922;-86
2023/03/31 00:10:00;;;;;;;;;;;;;;;11.51;nan;96764.16;4915866;29;19937;-87
2023/03/31 00:12:44;;;;;;;;;;;;;;;11.65;nan;96763.69;4927113;29;20337;-87
2023/03/31 00:15:28;;;;;;;;;;;;;;;11.48;nan;96743.66;4914854;29;20381;-87
2023/03/31 00:18:13;;;;;;;;;;;;;;;11.56;nan;96739.75;4911420;29;19945;-89
2023/03/31 00:21:06;;;;;;;;;;;;;;;11.42;nan;96742.06;4925680;29;20021;-88
2023/03/31 00:23:52;;;;;;;;;;;;;;;11.47;nan;96760.47;4920409;29;20405;-87
2023/03/31 00:26:36;;;;;;;;;;;;;;;11.21;nan;96768.22;4929232;29;19981;-87
2023/03/31 00:29:20;;;;;;;;;;;;;;;11.48;nan;96743.66;4910931;29;19921;-87
2023/03/31 00:32:04;;;;;;;;;;;;;;;11.38;nan;96701.56;4926788;29;19921;-87
2023/03/31 00:34:48;;;;;;;;;;;;;;;11.65;nan;96690.09;4930767;29;19931;-86
2023/03/31 00:37:35;;;;;;;;;;;;;;;11.57;nan;96691.41;4932206;29;19921;-87
2023/03/31 00:40:19;;;;;;;;;;;;;;;11.52;nan;96676.41;4908765;29;19996;-87
2023/03/31 00:43:16;;;;;;;;;;;;;;;11.49;nan;96674.28;4913786;29;19970;-87
2023/03/31 00:46:14;;;;;;;;;;;;;;;11.46;nan;96661.69;4930233;29;19946;-87
2023/03/31 00:48:58;;;;;;;;;;;;;;;11.37;nan;96652.72;4927957;29;19937;-88
2023/03/31 00:51:42;;;;;;;;;;;;;;;11.51;nan;96653.03;4912974;29;19922;-88
2023/03/31 00:54:28;;;;;;;;;;;;;;;11.48;nan;96643.81;4911807;29;20376;-87
2023/03/31 00:57:13;;;;;;;;;;;;;;;11.34;nan;96637.47;4928203;29;20017;-87
2023/03/31 01:00:09;;;;;;;;;;;;;;;11.46;nan;96629.34;4909012;29;20407;-86
2023/03/31 01:02:58;;;;;;;;;;;;;;;11.49;nan;96619.13;4911514;29;20426;-87
2023/03/31 01:05:44;;;;;;;;;;;;;;;11.43;nan;96614.94;4925000;29;20542;-88
2023/03/31 01:08:29;;;;;;;;;;;;;;;11.32;nan;96605.44;4929119;29;20429;-87
2023/03/31 01:11:17;;;;;;;;;;;;;;;11.20;nan;96595.97;4926406;29;20380;-87
2023/03/31 01:14:03;;;;;;;;;;;;;;;11.13;nan;96593.59;4913466;29;19926;-88
2023/03/31 01:16:47;;;;;;;;;;;;;;;11.32;nan;96579.16;4913236;29;19994;-87
2023/03/31 01:19:37;;;;;;;;;;;;;;;11.41;nan;96575.00;4932624;29;19922;-87
2023/03/31 01:22:33;;;;;;;;;;;;;;;11.46;nan;96568.94;4926396;29;20421;-87
2023/03/31 01:25:32;;;;;;;;;;;;;;;11.35;nan;96555.00;4931002;29;19926;-87
2023/03/31 01:28:16;;;;;;;;;;;;;;;11.39;nan;96553.44;4933299;29;19922;-87
2023/03/31 01:31:19;;;;;;;;;;;;;;;11.29;nan;96541.88;4910016;29;19922;-87
2023/03/31 01:34:03;;;;;;;;;;;;;;;11.35;nan;96534.00;4923209;29;20449;-85
2023/03/31 01:36:47;;;;;;;;;;;;;;;11.45;nan;96527.97;4923507;29;19921;-87
2023/03/31 01:39:42;;;;;;;;;;;;;;;11.43;nan;96520.38;4912552;29;19969;-86
2023/03/31 01:42:29;;;;;;;;;;;;;;;11.49;nan;96511.44;4926147;29;20326;-86
2023/03/31 01:45:21;;;;;;;;;;;;;;;11.24;nan;96499.88;4930875;29;19965;-88
2023/03/31 01:48:17;;;;;;;;;;;;;;;11.48;nan;96495.91;4912798;29;19922;-89
2023/03/31 01:51:15;;;;;;;;;;;;;;;11.35;nan;96482.28;4908545;29;19931;-87
2023/03/31 01:54:14;;;;;;;;;;;;;;;11.30;nan;96484.91;4930876;29;19921;-88
2023/03/31 01:57:00;;;;;;;;;;;;;;;11.23;nan;96461.53;4922313;29;19921;-88
2023/03/31 02:00:08;;;;;;;;;;;;;;;11.19;nan;96462.31;4905718;29;19922;-86
2023/03/31 02:02:58;;;;;;;;;;;;;;;11.01;nan;96451.25;4908852;29;19926;-86
2023/03/31 02:05:51;;;;;;;;;;;;;;;11.24;nan;96439.47;4910212;29;19941;-88
2023/03/31 02:08:45;;;;;;;;;;;;;;;11.18;nan;96429.22;4908021;29;19974;-87
2023/03/31 02:11:30;;;;;;;;;;;;;;;11.29;nan;96426.34;4925438;29;19943;-86
2023/03/31 02:14:17;;;;;;;;;;;;;;;11.35;nan;96418.44;4923540;29;19922;-86
2023/03/31 02:17:03;;;;;;;;;;;;;;;11.03;nan;96407.16;4929491;29;20074;-85
2023/03/31 02:19:49;;;;;;;;;;;;;;;11.29;nan;96400.06;4925436;29;19970;-87
2023/03/31 02:22:35;;;;;;;;;;;;;;;11.30;nan;96395.63;4910381;29;20384;-87
2023/03/31 02:25:21;;;;;;;;;;;;;;;11.18;nan;96388.00;4910579;29;20297;-87
2023/03/31 02:28:09;;;;;;;;;;;;;;;11.14;nan;96376.44;4910784;29;20282;-86
2023/03/31 02:30:56;;;;;;;;;;;;;;;11.28;nan;96377.50;4909185;29;20444;-87
2023/03/31 02:33:40;;;;;;;;;;;;;;;11.27;nan;96362.78;4912840;29;19922;-87
2023/03/31 02:36:24;;;;;;;;;;;;;;;11.20;nan;96359.66;4909347;29;19962;-88
2023/03/31 02:39:10;;;;;;;;;;;;;;;11.14;nan;96350.19;4927472;29;19917;-87
2023/03/31 02:41:55;;;;;;;;;;;;;;;11.06;nan;96337.63;4910139;29;19921;-87
2023/03/31 02:44:39;;;;;;;;;;;;;;;10.92;nan;96330.25;4931183;29;19977;-87
2023/03/31 02:47:23;;;;;;;;;;;;;;;11.00;nan;96324.50;4908313;29;19996;-88
2023/03/31 02:50:07;;;;;;;;;;;;;;;11.17;nan;96320.78;4922869;29;19926;-88
2023/03/31 02:53:01;;;;;;;;;;;;;;;11.20;nan;96311.59;4913523;29;19981;-88
2023/03/31 02:55:48;;;;;;;;;;;;;;;11.18;nan;96303.19;4910378;29;19922;-87
2023/03/31 02:58:39;;;;;;;;;;;;;;;11.21;nan;96300.84;4912138;29;19922;-88
2023/03/31 03:01:44;;;;;;;;;;;;;;;11.27;nan;96291.88;4927365;29;19922;-87
2023/03/31 03:04:48;;;;;;;;;;;;;;;11.17;nan;96276.16;4923775;29;19930;-87
2023/03/31 03:07:32;;;;;;;;;;;;;;;11.10;nan;96268.56;4928004;29;19922;-88
2023/03/31 03:10:26;;;;;;;;;;;;;;;11.06;nan;96264.13;4911973;29;19973;-86
2023/03/31 03:13:19;;;;;;;;;;;;;;;11.19;nan;96255.66;4914752;29;20424;-88
2023/03/31 03:16:17;;;;;;;;;;;;;;;11.07;nan;96252.56;4912777;29;19922;-87
2023/03/31 03:19:04;;;;;;;;;;;;;;;10.87;nan;96235.81;4930355;29;19922;-89
2023/03/31 03:21:49;;;;;;;;;;;;;;;10.94;nan;96233.69;4931819;29;19934;-88
2023/03/31 03:24:33;;;;;;;;;;;;;;;11.12;nan;96219.22;4912717;29;20028;-87
2023/03/31 03:27:18;;;;;;;;;;;;;;;10.96;nan;96222.94;4913459;29;20002;-88
2023/03/31 03:30:03;;;;;;;;;;;;;;;10.64;nan;96209.09;4913840;29;20006;-87
2023/03/31 03:32:47;;;;;;;;;;;;;;;10.89;nan;96199.59;4928310;29;19922;-86
2023/03/31 03:35:31;;;;;;;;;;;;;;;10.82;nan;96197.22;4917065;29;20029;-86
2023/03/31 03:38:15;;;;;;;;;;;;;;;10.90;nan;96201.16;4912310;29;19970;-88
2023/03/31 03:40:59;;;;;;;;;;;;;;;10.90;nan;96188.03;4931128;29;19926;-88
2023/03/31 03:43:43;;;;;;;;;;;;;;;10.99;nan;96180.41;4911778;29;19962;-86
2023/03/31 03:46:27;;;;;;;;;;;;;;;10.66;nan;96178.13;4911070;29;20010;-88
2023/03/31 03:49:11;;;;;;;;;;;;;;;10.79;nan;96171.53;4913885;29;19974;-86
2023/03/31 03:51:55;;;;;;;;;;;;;;;10.92;nan;96164.94;4932390;29;19974;-88
2023/03/31 03:54:39;;;;;;;;;;;;;;;10.86;nan;96156.28;4912207;29;19922;-88
2023/03/31 03:57:23;;;;;;;;;;;;;;;10.79;nan;96149.75;4936035;29;19957;-86
2023/03/31 04:00:11;;;;;;;;;;;;;;;10.95;nan;96146.03;4928374;29;19922;-88
2023/03/31 04:02:55;;;;;;;;;;;;;;;10.82;nan;96144.00;4906295;29;19952;-86
2023/03/31 04:05:39;;;;;;;;;;;;;;;10.82;nan;96129.00;4916573;29;19974;-87
2023/03/31 04:08:23;;;;;;;;;;;;;;;10.93;nan;96124.50;4911444;29;20336;-86
2023/03/31 04:11:16;;;;;;;;;;;;;;;10.97;nan;96115.03;4911275;29;19926;-86
2023/03/31 04:13:59;;;;;;;;;;;;;;;10.78;nan;96117.50;4913952;29;19926;-86
2023/03/31 04:16:45;;;;;;;;;;;;;;;11.02;nan;96110.84;4915715;29;20436;-88
2023/03/31 04:19:29;;;;;;;;;;;;;;;10.91;nan;96105.63;4910108;29;20024;-89
2023/03/31 04:22:14;;;;;;;;;;;;;;;10.86;nan;96103.03;4914748;29;19932;-87
2023/03/31 04:24:57;;;;;;;;;;;;;;;10.79;nan;96092.03;4924267;29;19934;-86
2023/03/31 04:27:45;;;;;;;;;;;;;;;10.74;nan;96086.81;4910981;29;19921;-85
2023/03/31 04:30:29;;;;;;;;;;;;;;;10.99;nan;96076.19;4913729;29;19958;-85
2023/03/31 04:33:14;;;;;;;;;;;;;;;10.90;nan;96075.19;4913130;29;19945;-87
2023/03/31 04:36:05;;;;;;;;;;;;;;;10.80;nan;96067.34;4924202;29;19922;-87
2023/03/31 04:38:53;;;;;;;;;;;;;;;10.79;nan;96065.78;4915206;29;19922;-86
2023/03/31 04:41:37;;;;;;;;;;;;;;;10.84;nan;96060.53;4930064;29;19921;-87
2023/03/31 04:44:21;;;;;;;;;;;;;;;10.54;nan;96046.47;4909951;29;20021;-86
2023/03/31 04:47:05;;;;;;;;;;;;;;;10.85;nan;96046.38;4925895;29;19963;-88
2023/03/31 04:49:49;;;;;;;;;;;;;;;10.99;nan;96044.69;4929228;29;19925;-87
2023/03/31 04:52:33;;;;;;;;;;;;;;;10.94;nan;96042.09;4925722;29;20050;-85
2023/03/31 04:55:17;;;;;;;;;;;;;;;10.74;nan;96040.38;4910074;29;20396;-87
2023/03/31 04:58:02;;;;;;;;;;;;;;;10.81;nan;96032.22;4924792;29;20436;-89
2023/03/31 05:00:46;;;;;;;;;;;;;;;10.81;nan;96038.25;4907125;29;19963;-85
2023/03/31 05:03:30;;;;;;;;;;;;;;;10.94;nan;96020.34;4922948;29;19925;-86
2023/03/31 05:06:14;;;;;;;;;;;;;;;10.86;nan;96024.31;4912647;29;19942;-87
2023/03/31 05:08:59;;;;;;;;;;;;;;;10.77;nan;96020.69;4907811;29;19922;-86
2023/03/31 05:11:43;;;;;;;;;;;;;;;10.63;nan;96017.88;4909786;29;20389;-87
2023/03/31 05:14:27;;;;;;;;;;;;;;;10.83;nan;96009.13;4931947;29;19921;-86
2023/03/31 05:17:11;;;;;;;;;;;;;;;10.90;nan;96004.34;4925916;29;19958;-87
2023/03/31 05:19:55;;;;;;;;;;;;;;;10.93;nan;96003.81;4928801;29;19943;-88
2023/03/31 05:22:39;;;;;;;;;;;;;;;10.84;nan;96002.81;4910678;29;19930;-87
2023/03/31 05:25:24;;;;;;;;;;;;;;;10.92;nan;95996.22;4926158;29;19934;-86
2023/03/31 05:28:11;;;;;;;;;;;;;;;10.90;nan;95998.31;4911700;29;19966;-85
2023/03/31 05:30:57;;;;;;;;;;;;;;;10.91;nan;95997.28;4913679;29;19930;-86
2023/03/31 05:33:41;;;;;;;;;;;;;;;11.04;nan;95995.88;4909511;29;19921;-86
2023/03/31 05:36:25;;;;;;;;;;;;;;;11.03;nan;95991.69;4928200;29;20329;-86
2023/03/31 05:39:10;;;;;;;;;;;;;;;10.90;nan;95998.31;4911699;29;19926;-87
2023/03/31 05:41:53;;;;;;;;;;;;;;;11.04;nan;95998.50;4931146;29;19961;-88
2023/03/31 05:44:37;;;;;;;;;;;;;;;10.83;nan;95988.91;4911661;29;19973;-86
2023/03/31 05:47:22;;;;;;;;;;;;;;;10.71;nan;95991.84;4924244;29;19970;-87
2023/03/31 05:50:07;;;;;;;;;;;;;;;10.78;nan;95990.75;4907963;29;19922;-89
2023/03/31 05:52:51;;;;;;;;;;;;;;;10.78;nan;95988.94;4925995;29;19922;-86
2023/03/31 05:55:36;;;;;;;;;;;;;;;10.68;nan;95987.16;4915739;29;20425;-87
2023/03/31 05:58:19;;;;;;;;;;;;;;;10.48;nan;95993.25;4911515;29;19974;-87
2023/03/31 06:01:08;;;;;;;;;;;;;;;10.76;nan;95992.88;4907187;29;19969;-88
2023/03/31 06:07:27;;;;;;;;;;;;;;;10.83;nan;95986.28;4928737;29;19925;-86
2023/03/31 06:10:11;;;;;;;;;;;;;;;11.06;nan;95985.88;4923208;29;19937;-86
2023/03/31 06:12:55;;;;;;;;;;;;;;;11.00;nan;95985.13;4917487;29;19939;-88
2023/03/31 06:15:39;;;;;;;;;;;;;;;10.91;nan;95974.44;4921621;29;19943;-87
2023/03/31 06:18:24;;;;;;;;;;;;;;;11.09;nan;95977.47;4909351;29;19967;-86
2023/03/31 06:21:17;;;;;;;;;;;;;;;11.25;nan;95978.94;4918141;29;19943;-88
2023/03/31 06:24:01;;;;;;;;;;;;;;;11.20;nan;95975.53;4905021;29;20408;-85
2023/03/31 06:26:45;;;;;;;;;;;;;;;11.25;nan;95981.56;4912291;29;19934;-86
2023/03/31 06:29:29;;;;;;;;;;;;;;;11.15;nan;95978.97;4911689;29;20420;-86
2023/03/31 06:32:12;;;;;;;;;;;;;;;11.18;nan;95981.06;4911143;29;19918;-87
2023/03/31 06:34:56;;;;;;;;;;;;;;;11.18;nan;95978.44;4915715;29;19922;-88
2023/03/31 06:37:40;;;;;;;;;;;;;;;11.09;nan;95980.84;4919112;29;19974;-88
2023/03/31 06:40:24;;;;;;;;;;;;;;;11.19;nan;95977.38;4924755;29;19942;-87
2023/03/31 06:43:08;;;;;;;;;;;;;;;11.19;nan;95979.22;4934966;29;19930;-86
2023/03/31 06:45:53;;;;;;;;;;;;;;;11.25;nan;95978.13;4914401;29;19922;-89
2023/03/31 06:48:37;;;;;;;;;;;;;;;11.31;nan;95977.06;4910759;29;20281;-89
2023/03/31 06:51:21;;;;;;;;;;;;;;;11.51;nan;95976.09;4913255;29;20337;-89
2023/03/31 06:54:05;;;;;;;;;;;;;;;11.26;nan;95970.00;4936790;29;19921;-88
2023/03/31 06:56:49;;;;;;;;;;;;;;;11.34;nan;95979.13;4919696;29;19964;-89
2023/03/31 06:59:33;;;;;;;;;;;;;;;11.39;nan;95968.56;4912956;29;19953;-89
2023/03/31 07:02:17;;;;;;;;;;;;;;;10.96;nan;95969.13;4898461;29;20365;-88
2023/03/31 07:05:01;;;;;;;;;;;;;;;10.86;nan;95971.84;4891275;29;19944;-90
2023/03/31 07:07:45;;;;;;;;;;;;;;;11.22;nan;95973.44;4897570;29;20275;-88
2023/03/31 07:10:30;;;;;;;;;;;;;;;11.26;nan;95972.63;4877349;29;19974;-89
2023/03/31 07:13:15;;;;;;;;;;;;;;;11.16;nan;95980.56;4893145;29;19955;-88
2023/03/31 07:15:58;;;;;;;;;;;;;;;11.02;nan;95979.63;4896015;29;19922;-88
2023/03/31 07:18:42;;;;;;;;;;;;;;;11.21;nan;95977.91;4887716;29;19923;-88
2023/03/31 07:21:40;;;;;;;;;;;;;;;;;;;;;
2023/03/31 07:24:29;;;;;;;;;;;;;;;11.27;nan;95978.63;4889886;29;20391;-87
2023/03/31 07:27:13;;;;;;;;;;;;;;;11.34;nan;95978.31;4874074;29;19926;-89
2023/03/31 07:29:57;;;;;;;;;;;;;;;11.53;nan;95975.81;4880608;29;20038;-86
2023/03/31 07:32:41;;;;;;;;;;;;;;;11.24;nan;95977.34;4895641;29;19944;-87
2023/03/31 07:35:25;;;;;;;;;;;;;;;11.05;nan;95984.31;4875022;29;19938;-87
2023/03/31 07:38:09;;;;;;;;;;;;;;;11.19;nan;95980.00;4883835;29;19989;-89
2023/03/31 07:40:53;;;;;;;;;;;;;;;11.06;nan;95975.38;4898464;29;19922;-88
2023/03/31 07:43:38;;;;;;;;;;;;;;;11.19;nan;95976.59;4896974;29;19922;-88
2023/03/31 07:46:23;;;;;;;;;;;;;;;11.14;nan;95977.41;4882736;29;19927;-88
2023/03/31 07:49:09;;;;;;;;;;;;;;;11.02;nan;95979.63;4888089;29;20466;-89
2023/03/31 07:51:53;;;;;;;;;;;;;;;11.20;nan;95976.34;4874543;29;19986;-88
2023/03/31 07:54:37;;;;;;;;;;;;;;;11.05;nan;95973.81;4887597;29;19926;-86
2023/03/31 07:57:21;;;;;;;;;;;;;;;11.03;nan;95978.56;4892667;29;20407;-90
2023/03/31 08:00:07;;;;;;;;;;;;;;;11.11;nan;95976.16;4896569;29;19942;-88
2023/03/31 08:02:51;;;;;;;;;;;;;;;11.08;nan;95983.78;4899871;29;19926;-88
2023/03/31 08:05:35;;;;;;;;;;;;;;;11.20;nan;95986.84;4929533;29;20006;-87
2023/03/31 08:08:20;;;;;;;;;;;;;;;11.32;nan;95988.31;4915504;29;19957;-87
2023/03/31 08:11:04;;;;;;;;;;;;;;;11.36;nan;95984.09;4915413;29;19922;-86
2023/03/31 08:13:48;;;;;;;;;;;;;;;11.22;nan;95984.72;4914632;29;19962;-89
2023/03/31 08:16:32;;;;;;;;;;;;;;;11.58;nan;95981.03;4931884;29;19922;-87
2023/03/31 08:19:16;;;;;;;;;;;;;;;11.67;nan;95984.59;4915511;29;19921;-90
2023/03/31 08:21:59;;;;;;;;;;;;;;;11.17;nan;95990.00;4920106;29;20014;-88
2023/03/31 08:24:43;;;;;;;;;;;;;;;11.28;nan;95988.88;4905082;29;20018;-90
2023/03/31 08:27:27;;;;;;;;;;;;;;;11.15;nan;95984.25;4932072;29;19922;-90
2023/03/31 08:30:12;;;;;;;;;;;;;;;11.17;nan;95986.59;4911895;29;20400;-88
2023/03/31 08:32:56;;;;;;;;;;;;;;;11.12;nan;95996.09;4914588;29;20380;-88
2023/03/31 08:35:39;;;;;;;;;;;;;;;11.28;nan;95996.75;4924229;29;19969;-88
2023/03/31 08:38:24;;;;;;;;;;;;;;;11.52;nan;95993.41;4918953;29;19922;-89
2023/03/31 08:41:23;;;;;;;;;;;;;;;11.27;nan;95992.56;4919217;29;19921;-89
2023/03/31 08:44:12;;;;;;;;;;;;;;;11.25;nan;95996.50;4913740;29;19925;-89
2023/03/31 08:46:58;;;;;;;;;;;;;;;11.45;nan;95998.22;4906377;29;19922;-88
2023/03/31 08:49:45;;;;;;;;;;;;;;;11.24;nan;95998.38;4903318;29;19913;-90
2023/03/31 08:52:33;;;;;;;;;;;;;;;11.35;nan;95993.03;4890877;29;20446;-89
2023/03/31 08:55:21;;;;;;;;;;;;;;;11.63;nan;95994.09;4906816;29;20018;-91
2023/03/31 08:58:08;;;;;;;;;;;;;;;11.35;nan;96006.94;4892956;29;20293;-88
2023/03/31 09:00:52;;;;;;;;;;;;;;;11.12;nan;96005.78;4891359;29;19922;-88
2023/03/31 09:03:39;;;;;;;;;;;;;;;11.58;nan;96002.81;4892418;29;20351;-91
2023/03/31 09:06:33;;;;;;;;;;;;;;;11.65;nan;96006.97;4892278;29;19943;-90
2023/03/31 09:09:29;;;;;;;;;;;;;;;11.40;nan;96012.16;4893533;29;19922;-90
2023/03/31 09:12:19;;;;;;;;;;;;;;;11.63;nan;96014.34;4906371;29;19931;-91
2023/03/31 09:15:09;;;;;;;;;;;;;;;11.43;nan;96016.84;4891511;29;19922;-87
2023/03/31 09:17:54;;;;;;;;;;;;;;;11.14;nan;96020.22;4891807;29;19971;-91
2023/03/31 09:20:39;;;;;;;;;;;;;;;11.62;nan;96026.69;4892315;29;20008;-90
2023/03/31 09:23:42;;;;;;;;;;;;;;;11.45;nan;96021.84;4906362;29;19923;-89
2023/03/31 09:26:37;;;;;;;;;;;;;;;11.98;nan;96022.94;4892272;29;20334;-90
2023/03/31 09:29:30;;;;;;;;;;;;;;;11.99;nan;96027.94;4905956;29;19963;-90
2023/03/31 09:32:21;;;;;;;;;;;;;;;11.56;nan;96031.19;4890846;29;19923;-89
2023/03/31 09:35:17;;;;;;;;;;;;;;;11.52;nan;96035.44;4890856;29;19938;-91
2023/03/31 09:38:01;;;;;;;;;;;;;;;11.58;nan;96039.59;4906303;29;20436;-89
2023/03/31 09:40:45;;;;;;;;;;;;;;;11.42;nan;96038.94;4905012;29;19921;-88
2023/03/31 09:43:34;;;;;;;;;;;;;;;11.29;nan;96042.16;4926280;29;19921;-88
2023/03/31 09:46:21;;;;;;;;;;;;;;;11.68;nan;96049.22;4930476;29;20006;-90
2023/03/31 09:49:09;;;;;;;;;;;;;;;11.52;nan;96051.19;4907299;29;19950;-89
2023/03/31 09:52:15;;;;;;;;;;;;;;;11.84;nan;96051.72;4912312;29;19921;-89
2023/03/31 09:55:00;;;;;;;;;;;;;;;11.53;nan;96063.28;4914708;29;20017;-89
2023/03/31 09:57:45;;;;;;;;;;;;;;;11.72;nan;96065.22;4913331;29;20009;-89
2023/03/31 10:00:29;;;;;;;;;;;;;;;11.65;nan;96064.78;4914702;29;20392;-88
2023/03/31 10:03:14;;;;;;;;;;;;;;;11.45;nan;96070.94;4912218;29;19926;-88
2023/03/31 10:05:58;;;;;;;;;;;;;;;11.77;nan;96073.06;4907119;29;19926;-90
2023/03/31 10:09:02;;;;;;;;;;;;;;;11.98;nan;96078.16;4926088;29;19922;-89
2023/03/31 10:11:55;;;;;;;;;;;;;;;11.79;nan;96081.50;4916698;29;20277;-89
2023/03/31 10:14:46;;;;;;;;;;;;;;;11.57;nan;96080.03;4910132;29;19921;-89
2023/03/31 10:17:34;;;;;;;;;;;;;;;11.74;nan;96086.75;4926257;29;20300;-89
2023/03/31 10:20:26;;;;;;;;;;;;;;;11.71;nan;96090.75;4929013;29;19922;-89
2023/03/31 10:23:19;;;;;;;;;;;;;;;11.75;nan;96085.69;4907264;29;19940;-91
2023/03/31 10:26:03;;;;;;;;;;;;;;;11.83;nan;96095.63;4910591;29;20305;-88
2023/03/31 10:28:51;;;;;;;;;;;;;;;11.67;nan;96092.31;4915167;29;19961;-89
2023/03/31 10:31:36;;;;;;;;;;;;;;;11.72;nan;96107.28;4934353;29;19921;-89
2023/03/31 10:34:21;;;;;;;;;;;;;;;11.79;nan;96097.25;4916410;29;19970;-89
2023/03/31 10:37:05;;;;;;;;;;;;;;;11.70;nan;96104.13;4907926;29;20389;-88
2023/03/31 10:40:00;;;;;;;;;;;;;;;12.22;nan;96103.75;4919095;29;19930;-88
2023/03/31 10:42:46;;;;;;;;;;;;;;;12.20;nan;96121.66;4918564;29;19926;-90
2023/03/31 10:45:35;;;;;;;;;;;;;;;12.02;nan;96121.28;4906924;29;20401;-88
2023/03/31 10:48:25;;;;;;;;;;;;;;;11.91;nan;96122.38;4925575;29;19970;-90
2023/03/31 10:51:09;;;;;;;;;;;;;;;11.77;nan;96125.63;4910346;29;19939;-89
2023/03/31 10:53:54;;;;;;;;;;;;;;;11.68;nan;96127.28;4914436;29;19917;-91
2023/03/31 10:56:38;;;;;;;;;;;;;;;11.72;nan;96138.81;4907291;29;19923;-89
2023/03/31 10:59:25;;;;;;;;;;;;;;;11.24;nan;96137.53;4912504;29;19938;-88
2023/03/31 11:02:21;;;;;;;;;;;;;;;11.66;nan;96142.53;4930169;29;20072;-88
2023/03/31 11:05:05;;;;;;;;;;;;;;;11.51;nan;96138.94;4913505;29;20057;-90
2023/03/31 11:07:58;;;;;;;;;;;;;;;11.45;nan;96147.91;4910412;29;19942;-89
2023/03/31 11:11:01;;;;;;;;;;;;;;;11.39;nan;96156.84;4908174;29;19975;-90
2023/03/31 11:13:45;;;;;;;;;;;;;;;11.58;nan;96159.66;4927601;29;19971;-86
2023/03/31 11:16:29;;;;;;;;;;;;;;;11.65;nan;96164.63;4917995;29;20285;-89
2023/03/31 11:19:26;;;;;;;;;;;;;;;11.43;nan;96163.94;4914159;29;19921;-90
2023/03/31 11:22:28;;;;;;;;;;;;;;;11.64;nan;96168.28;4931380;29;19969;-90
2023/03/31 11:25:15;;;;;;;;;;;;;;;11.60;nan;96180.41;4919072;29;19986;-90
2023/03/31 11:28:02;;;;;;;;;;;;;;;11.35;nan;96189.97;4932590;29;19967;-88
2023/03/31 11:31:05;;;;;;;;;;;;;;;11.51;nan;96190.69;4918868;29;20434;-90
2023/03/31 11:34:09;;;;;;;;;;;;;;;11.41;nan;96192.31;4927362;29;20096;-89
2023/03/31 11:37:00;;;;;;;;;;;;;;;11.47;nan;96195.69;4918652;29;19922;-90
2023/03/31 11:39:59;;;;;;;;;;;;;;;11.43;nan;96205.94;4919028;29;19963;-89
2023/03/31 11:43:06;;;;;;;;;;;;;;;11.48;nan;96201.72;4920546;29;19921;-89
2023/03/31 11:46:02;;;;;;;;;;;;;;;11.58;nan;96207.72;4921644;29;19929;-90
2023/03/31 11:48:58;;;;;;;;;;;;;;;11.53;nan;96220.88;4920058;29;20281;-90
2023/03/31 11:51:55;;;;;;;;;;;;;;;11.58;nan;96217.44;4916232;29;19962;-89
2023/03/31 11:54:52;;;;;;;;;;;;;;;11.43;nan;96220.94;4914792;29;19926;-91
2023/03/31 11:57:39;;;;;;;;;;;;;;;11.63;nan;96224.53;4916502;29;19939;-90
2023/03/31 12:00:27;;;;;;;;;;;;;;;11.33;nan;96237.53;4920896;29;19979;-89
2023/03/31 12:03:11;;;;;;;;;;;;;;;11.56;nan;96241.34;4921770;29;19926;-90
2023/03/31 12:06:18;;;;;;;;;;;;;;;12.55;nan;96238.13;4919438;29;20429;-90
2023/03/31 12:09:32;;;;;;;;;;;;;;;12.56;nan;96229.97;4919822;29;19921;-90
2023/03/31 12:12:19;;;;;;;;;;;;;;;12.16;nan;96241.56;4906122;29;19923;-90
2023/03/31 12:15:18;;;;;;;;;;;;;;;11.93;nan;96246.44;4927924;29;19922;-90
2023/03/31 12:21:57;;;;;;;;;;;;;;;11.64;nan;96263.66;4929823;29;19968;-89
2023/03/31 12:24:47;;;;;;;;;;;;;;;11.98;nan;96265.59;4912131;29;20017;-89
2023/03/31 12:27:41;;;;;;;;;;;;;;;12.05;nan;96262.69;4915828;29;19997;-89
2023/03/31 12:30:26;;;;;;;;;;;;;;;12.56;nan;96266.81;4909322;29;19961;-89
2023/03/31 12:33:31;;;;;;;;;;;;;;;12.33;nan;96268.28;4908364;29;19925;-88
2023/03/31 12:36:18;;;;;;;;;;;;;;;12.56;nan;96264.16;4909936;29;19921;-89
2023/03/31 12:39:18;;;;;;;;;;;;;;;12.25;nan;96282.03;4924164;29;19982;-89
2023/03/31 12:42:27;;;;;;;;;;;;;;;12.14;nan;96271.56;4908581;29;19957;-88
2023/03/31 12:45:30;;;;;;;;;;;;;;;12.37;nan;96285.06;4906299;29;19963;-89
2023/03/31 12:48:33;;;;;;;;;;;;;;;12.02;nan;96289.53;4913648;29;20391;-90
2023/03/31 13:03:13;;;;;;;;;;;;;;;12.58;nan;96303.38;4916396;29;19959;-91
2023/03/31 13:06:14;;;;;;;;;;;;;;;;;;;;;
2023/03/31 13:12:42;;;;;;;;;;;;;;;12.05;nan;96325.78;4924015;29;20008;-91
2023/03/31 13:19:19;;;;;;;;;;;;;;;11.85;nan;96337.94;4902925;29;19926;-88
2023/03/31 13:22:11;;;;;;;;;;;;;;;11.86;nan;96347.41;4911927;29;19922;-88
2023/03/31 13:25:17;;;;;;;;;;;;;;;11.81;nan;96354.50;4909755;29;19925;-89
2023/03/31 13:28:28;;;;;;;;;;;;;;;11.94;nan;96366.28;4904083;29;19921;-90
2023/03/31 13:35:49;;;;;;;;;;;;;;;;;;;;;
2023/03/31 13:45:43;;;;;;;;;;;;;;;11.80;nan;96392.34;4842283;29;19934;-88
2023/03/31 13:48:32;;;;;;;;;;;;;;;11.49;nan;96395.03;4863292;29;19938;-90
2023/03/31 13:51:22;;;;;;;;;;;;;;;11.55;nan;96394.00;4902307;29;19918;-89
2023/03/31 13:54:17;;;;;;;;;;;;;;;11.66;nan;96413.16;4911798;29;20428;-90
2023/03/31 13:57:19;;;;;;;;;;;;;;;11.40;nan;96419.22;4910613;29;19978;-87
2023/03/31 14:00:19;;;;;;;;;;;;;;;11.46;nan;96411.34;4932002;29;19930;-87
2023/03/31 14:03:19;;;;;;;;;;;;;;;11.55;nan;96412.38;4920871;29;20006;-90
2023/03/31 14:06:21;;;;;;;;;;;;;;;11.56;nan;96417.38;4925334;29;20000;-89
2023/03/31 14:09:08;;;;;;;;;;;;;;;11.34;nan;96422.94;4919061;29;19922;-89
2023/03/31 14:11:52;;;;;;;;;;;;;;;11.53;nan;96415.28;4921175;29;19930;-92
2023/03/31 14:14:39;;;;;;;;;;;;;;;11.55;nan;96428.16;4911899;29;19934;-88
2023/03/31 14:17:34;;;;;;;;;;;;;;;11.30;nan;96437.63;4909491;29;20372;-89
2023/03/31 14:20:18;;;;;;;;;;;;;;;11.41;nan;96447.06;4910348;29;19922;-88
2023/03/31 14:23:29;;;;;;;;;;;;;;;11.40;nan;96448.13;4911368;29;20356;-89
2023/03/31 14:26:33;;;;;;;;;;;;;;;11.39;nan;96470.19;4931381;29;19969;-89
2023/03/31 14:29:35;;;;;;;;;;;;;;;11.45;nan;96455.22;4926289;29;20619;-89
2023/03/31 14:32:39;;;;;;;;;;;;;;;11.61;nan;96465.72;4922619;29;19921;-89
2023/03/31 14:35:30;;;;;;;;;;;;;;;11.39;nan;96466.75;4910464;29;19922;-90
2023/03/31 14:38:18;;;;;;;;;;;;;;;11.33;nan;96475.69;4910857;29;20281;-89
2023/03/31 14:41:03;;;;;;;;;;;;;;;11.37;nan;96468.88;4914640;29;19965;-89
2023/03/31 14:43:49;;;;;;;;;;;;;;;11.41;nan;96480.44;4930480;29;20033;-88
2023/03/31 14:46:37;;;;;;;;;;;;;;;11.49;nan;96482.53;4913165;29;19930;-91
2023/03/31 14:49:24;;;;;;;;;;;;;;;11.66;nan;96482.25;4936709;29;19961;-89
2023/03/31 14:52:22;;;;;;;;;;;;;;;11.50;nan;96499.09;4919012;29;19939;-90
2023/03/31 14:55:13;;;;;;;;;;;;;;;11.54;nan;96505.41;4919544;29;19929;-89
2023/03/31 14:57:59;;;;;;;;;;;;;;;11.47;nan;96503.03;4914161;29;19965;-88
2023/03/31 15:00:44;;;;;;;;;;;;;;;11.73;nan;96518.00;4916460;29;19967;-88
2023/03/31 15:03:28;;;;;;;;;;;;;;;11.62;nan;96518.00;4910694;29;19926;-89
2023/03/31 15:06:13;;;;;;;;;;;;;;;11.43;nan;96520.38;4913120;29;19945;-86
2023/03/31 15:09:00;;;;;;;;;;;;;;;11.43;nan;96536.13;4911274;29;19933;-86
2023/03/31 15:11:47;;;;;;;;;;;;;;;11.58;nan;96530.84;4928864;29;19922;-85
2023/03/31 15:14:34;;;;;;;;;;;;;;;11.34;nan;96543.72;4912405;29;19965;-86
2023/03/31 15:17:21;;;;;;;;;;;;;;;11.36;nan;96540.81;4915211;29;19922;-87
2023/03/31 15:20:21;;;;;;;;;;;;;;;11.56;nan;96540.84;4912279;29;19967;-85
2023/03/31 15:23:29;;;;;;;;;;;;;;;11.64;nan;96551.91;4914915;29;19921;-85
2023/03/31 15:26:30;;;;;;;;;;;;;;;11.34;nan;96563.94;4922182;29;21451;-85
2023/03/31 15:29:40;;;;;;;;;;;;;;;11.36;nan;96573.16;4913896;29;20321;-85
2023/03/31 15:35:35;;;;;;;;;;;;;;;11.38;nan;96573.66;4931598;29;19957;-90
2023/03/31 15:38:19;;;;;;;;;;;;;;;11.29;nan;96577.84;4914717;29;19977;-89
2023/03/31 15:41:10;;;;;;;;;;;;;;;11.13;nan;96575.19;4928694;29;19970;-91
2023/03/31 15:44:18;;;;;;;;;;;;;;;11.28;nan;96587.56;4917842;29;19926;-89
2023/03/31 15:47:07;;;;;;;;;;;;;;;11.27;nan;96596.50;4915640;29;19926;-89